sensor_id;sensor_type;location;lat;lon;timestamp;pressure;altitude;pressure_sealevel;temperature;humidity
70971;BME280;58632;51.718;19.446;2023-02-01T00:00:03;98522.67;;;2.52;100.00
70971;BME280;58632;51.718;19.446;2023-02-01T00:02:29;98519.33;;;2.52;100.00
70971;BME280;58632;51.718;19.446;2023-02-01T00:04:55;98517.66;;;2.49;100.00
70971;BME280;58632;51.718;19.446;2023-02-01T00:07:23;98527.14;;;2.44;100.00
70971;BME280;58632;51.718;19.446;2023-02-01T00:09:48;98529.83;;;2.37;100.00
70971;BME280;58632;51.718;19.446;2023-02-01T00:12:14;98528.64;;;2.31;100.00
70971;BME280;58632;51.718;19.446;2023-02-01T00:14:40;98527.34;;;2.25;100.00
70971;BME280;58632;51.718;19.446;2023-02-01T00:17:05;98533.11;;;2.19;100.00
70971;BME280;58632;51.718;19.446;2023-02-01T00:19:32;98539.30;;;2.11;100.00
70971;BME280;58632;51.718;19.446;2023-02-01T00:21:57;98543.66;;;2.03;100.00
70971;BME280;58632;51.718;19.446;2023-02-01T00:24:23;98539.75;;;1.94;100.00
70971;BME280;58632;51.718;19.446;2023-02-01T00:26:49;98540.02;;;1.91;100.00
70971;BME280;58632;51.718;19.446;2023-02-01T00:29:16;98539.02;;;1.88;100.00
70971;BME280;58632;51.718;19.446;2023-02-01T00:31:41;98541.35;;;1.86;100.00
70971;BME280;58632;51.718;19.446;2023-02-01T00:34:07;98538.45;;;1.81;100.00
70971;BME280;58632;51.718;19.446;2023-02-01T00:36:35;98538.05;;;1.79;100.00
70971;BME280;58632;51.718;19.446;2023-02-01T00:39:00;98535.82;;;1.81;100.00
70971;BME280;58632;51.718;19.446;2023-02-01T00:41:26;98541.91;;;1.81;100.00
70971;BME280;58632;51.718;19.446;2023-02-01T00:43:52;98549.44;;;1.82;100.00
70971;BME280;58632;51.718;19.446;2023-02-01T00:46:17;98558.55;;;1.80;100.00
70971;BME280;58632;51.718;19.446;2023-02-01T00:48:43;98559.81;;;1.79;100.00
70971;BME280;58632;51.718;19.446;2023-02-01T00:51:10;98557.27;;;1.80;100.00
70971;BME280;58632;51.718;19.446;2023-02-01T00:53:36;98557.42;;;1.83;100.00
70971;BME280;58632;51.718;19.446;2023-02-01T00:56:03;98559.52;;;1.85;100.00
70971;BME280;58632;51.718;19.446;2023-02-01T00:58:28;98560.59;;;1.85;100.00
70971;BME280;58632;51.718;19.446;2023-02-01T01:03:30;98562.98;;;1.82;100.00
70971;BME280;58632;51.718;19.446;2023-02-01T01:05:58;98561.63;;;1.80;100.00
70971;BME280;58632;51.718;19.446;2023-02-01T01:08:24;98565.44;;;1.78;100.00
70971;BME280;58632;51.718;19.446;2023-02-01T01:10:50;98566.04;;;1.78;100.00
70971;BME280;58632;51.718;19.446;2023-02-01T01:13:16;98563.04;;;1.76;100.00
70971;BME280;58632;51.718;19.446;2023-02-01T01:15:41;98561.42;;;1.72;100.00
70971;BME280;58632;51.718;19.446;2023-02-01T01:18:07;98561.42;;;1.69;100.00
70971;BME280;58632;51.718;19.446;2023-02-01T01:20:37;98555.48;;;1.69;100.00
70971;BME280;58632;51.718;19.446;2023-02-01T01:23:03;98559.61;;;1.71;100.00
70971;BME280;58632;51.718;19.446;2023-02-01T01:25:29;98567.14;;;1.73;100.00
70971;BME280;58632;51.718;19.446;2023-02-01T01:27:54;98568.35;;;1.74;100.00
70971;BME280;58632;51.718;19.446;2023-02-01T01:30:20;98564.46;;;1.71;100.00
70971;BME280;58632;51.718;19.446;2023-02-01T01:32:46;98563.45;;;1.71;100.00
70971;BME280;58632;51.718;19.446;2023-02-01T01:35:12;98566.34;;;1.69;100.00
70971;BME280;58632;51.718;19.446;2023-02-01T01:37:37;98571.66;;;1.70;100.00
70971;BME280;58632;51.718;19.446;2023-02-01T01:40:03;98579.48;;;1.71;100.00
70971;BME280;58632;51.718;19.446;2023-02-01T01:42:29;98582.91;;;1.73;100.00
70971;BME280;58632;51.718;19.446;2023-02-01T01:47:20;98585.34;;;1.76;100.00
70971;BME280;58632;51.718;19.446;2023-02-01T01:49:46;98586.89;;;1.76;100.00
70971;BME280;58632;51.718;19.446;2023-02-01T01:52:12;98588.43;;;1.79;100.00
70971;BME280;58632;51.718;19.446;2023-02-01T01:54:38;98594.23;;;1.81;100.00
70971;BME280;58632;51.718;19.446;2023-02-01T01:57:06;98590.66;;;1.84;100.00
70971;BME280;58632;51.718;19.446;2023-02-01T01:59:33;98585.88;;;1.86;100.00
70971;BME280;58632;51.718;19.446;2023-02-01T02:02:00;98590.73;;;1.86;100.00
70971;BME280;58632;51.718;19.446;2023-02-01T02:04:25;98589.08;;;1.85;100.00
70971;BME280;58632;51.718;19.446;2023-02-01T02:06:54;98591.85;;;1.88;100.00
70971;BME280;58632;51.718;19.446;2023-02-01T02:09:20;98596.48;;;1.89;100.00
70971;BME280;58632;51.718;19.446;2023-02-01T02:11:46;98599.77;;;1.89;100.00
70971;BME280;58632;51.718;19.446;2023-02-01T02:14:12;98600.09;;;1.89;100.00
70971;BME280;58632;51.718;19.446;2023-02-01T02:20:07;98597.80;;;1.87;100.00
70971;BME280;58632;51.718;19.446;2023-02-01T02:27:48;98594.33;;;1.92;100.00
70971;BME280;58632;51.718;19.446;2023-02-01T02:30:36;98601.98;;;1.92;100.00
70971;BME280;58632;51.718;19.446;2023-02-01T02:40:53;98617.42;;;2.02;100.00
70971;BME280;58632;51.718;19.446;2023-02-01T02:46:33;98618.33;;;2.07;100.00
70971;BME280;58632;51.718;19.446;2023-02-01T02:54:33;98612.84;;;2.13;100.00
70971;BME280;58632;51.718;19.446;2023-02-01T02:57:25;98619.37;;;2.13;100.00
70971;BME280;58632;51.718;19.446;2023-02-01T03:00:16;98614.58;;;2.12;100.00
70971;BME280;58632;51.718;19.446;2023-02-01T03:03:01;98608.38;;;2.11;100.00
70971;BME280;58632;51.718;19.446;2023-02-01T03:05:46;98607.70;;;2.14;100.00
70971;BME280;58632;51.718;19.446;2023-02-01T03:10:41;98598.98;;;2.15;100.00
70971;BME280;58632;51.718;19.446;2023-02-01T03:13:53;98605.48;;;2.14;100.00
70971;BME280;58632;51.718;19.446;2023-02-01T03:18:49;98618.70;;;2.11;100.00
70971;BME280;58632;51.718;19.446;2023-02-01T03:21:13;98615.77;;;2.12;100.00
70971;BME280;58632;51.718;19.446;2023-02-01T03:23:41;98613.77;;;2.12;100.00
70971;BME280;58632;51.718;19.446;2023-02-01T03:26:09;98617.98;;;2.12;100.00
70971;BME280;58632;51.718;19.446;2023-02-01T03:28:36;98620.92;;;2.11;100.00
70971;BME280;58632;51.718;19.446;2023-02-01T03:31:03;98624.50;;;2.10;100.00
70971;BME280;58632;51.718;19.446;2023-02-01T03:33:29;98628.90;;;2.11;100.00
70971;BME280;58632;51.718;19.446;2023-02-01T03:38:41;98637.35;;;2.10;100.00
70971;BME280;58632;51.718;19.446;2023-02-01T03:43:48;98637.13;;;2.11;100.00
70971;BME280;58632;51.718;19.446;2023-02-01T03:46:17;98637.42;;;2.13;100.00
70971;BME280;58632;51.718;19.446;2023-02-01T03:48:45;98632.98;;;2.14;100.00
70971;BME280;58632;51.718;19.446;2023-02-01T03:51:11;98638.80;;;2.15;100.00
70971;BME280;58632;51.718;19.446;2023-02-01T03:53:37;98634.41;;;2.16;100.00
70971;BME280;58632;51.718;19.446;2023-02-01T03:56:05;98638.85;;;2.18;100.00
70971;BME280;58632;51.718;19.446;2023-02-01T03:58:31;98636.05;;;2.21;100.00
70971;BME280;58632;51.718;19.446;2023-02-01T04:00:58;98634.55;;;2.21;100.00
70971;BME280;58632;51.718;19.446;2023-02-01T04:03:25;98633.98;;;2.22;100.00
70971;BME280;58632;51.718;19.446;2023-02-01T04:05:51;98629.23;;;2.21;100.00
70971;BME280;58632;51.718;19.446;2023-02-01T04:08:17;98631.66;;;2.21;100.00
70971;BME280;58632;51.718;19.446;2023-02-01T04:10:43;98634.16;;;2.23;100.00
70971;BME280;58632;51.718;19.446;2023-02-01T04:13:09;98628.73;;;2.25;100.00
70971;BME280;58632;51.718;19.446;2023-02-01T04:15:34;98633.42;;;2.27;100.00
70971;BME280;58632;51.718;19.446;2023-02-01T04:18:00;98629.09;;;2.27;100.00
70971;BME280;58632;51.718;19.446;2023-02-01T04:20:25;98632.84;;;2.27;100.00
70971;BME280;58632;51.718;19.446;2023-02-01T04:22:51;98631.08;;;2.27;100.00
70971;BME280;58632;51.718;19.446;2023-02-01T04:25:17;98628.99;;;2.30;100.00
70971;BME280;58632;51.718;19.446;2023-02-01T04:27:42;98629.46;;;2.30;100.00
70971;BME280;58632;51.718;19.446;2023-02-01T04:30:08;98635.66;;;2.31;100.00
70971;BME280;58632;51.718;19.446;2023-02-01T04:32:35;98636.91;;;2.31;100.00
70971;BME280;58632;51.718;19.446;2023-02-01T04:35:01;98633.34;;;2.31;100.00
70971;BME280;58632;51.718;19.446;2023-02-01T04:37:26;98630.95;;;2.32;100.00
70971;BME280;58632;51.718;19.446;2023-02-01T04:39:52;98632.63;;;2.31;100.00
70971;BME280;58632;51.718;19.446;2023-02-01T04:42:17;98630.77;;;2.34;100.00
70971;BME280;58632;51.718;19.446;2023-02-01T04:44:43;98629.67;;;2.35;100.00
70971;BME280;58632;51.718;19.446;2023-02-01T04:47:09;98632.79;;;2.36;100.00
70971;BME280;58632;51.718;19.446;2023-02-01T04:49:34;98633.95;;;2.34;100.00
70971;BME280;58632;51.718;19.446;2023-02-01T04:52:00;98635.39;;;2.32;100.00
70971;BME280;58632;51.718;19.446;2023-02-01T04:54:26;98638.17;;;2.34;100.00
70971;BME280;58632;51.718;19.446;2023-02-01T04:56:51;98640.98;;;2.37;100.00
70971;BME280;58632;51.718;19.446;2023-02-01T04:59:17;98641.91;;;2.38;100.00
70971;BME280;58632;51.718;19.446;2023-02-01T05:01:43;98645.77;;;2.38;100.00
70971;BME280;58632;51.718;19.446;2023-02-01T05:04:08;98645.02;;;2.37;100.00
70971;BME280;58632;51.718;19.446;2023-02-01T05:06:37;98641.94;;;2.38;100.00
70971;BME280;58632;51.718;19.446;2023-02-01T05:09:03;98639.60;;;2.38;100.00
70971;BME280;58632;51.718;19.446;2023-02-01T05:11:29;98644.38;;;2.41;100.00
70971;BME280;58632;51.718;19.446;2023-02-01T05:14:13;98648.17;;;2.42;100.00
70971;BME280;58632;51.718;19.446;2023-02-01T05:16:39;98645.02;;;2.44;100.00
70971;BME280;58632;51.718;19.446;2023-02-01T05:19:04;98646.11;;;2.43;100.00
70971;BME280;58632;51.718;19.446;2023-02-01T05:21:30;98647.08;;;2.43;100.00
70971;BME280;58632;51.718;19.446;2023-02-01T05:23:56;98645.73;;;2.44;100.00
70971;BME280;58632;51.718;19.446;2023-02-01T05:26:46;98644.95;;;2.45;100.00
70971;BME280;58632;51.718;19.446;2023-02-01T05:29:11;98642.96;;;2.47;100.00
70971;BME280;58632;51.718;19.446;2023-02-01T05:31:38;98635.60;;;2.45;100.00
70971;BME280;58632;51.718;19.446;2023-02-01T05:34:04;98625.08;;;2.44;100.00
70971;BME280;58632;51.718;19.446;2023-02-01T05:36:30;98629.48;;;2.42;100.00
70971;BME280;58632;51.718;19.446;2023-02-01T05:38:55;98629.04;;;2.43;100.00
70971;BME280;58632;51.718;19.446;2023-02-01T05:41:21;98627.89;;;2.44;100.00
70971;BME280;58632;51.718;19.446;2023-02-01T05:43:47;98630.45;;;2.46;100.00
70971;BME280;58632;51.718;19.446;2023-02-01T05:46:15;98624.36;;;2.47;100.00
70971;BME280;58632;51.718;19.446;2023-02-01T05:48:41;98624.98;;;2.47;100.00
70971;BME280;58632;51.718;19.446;2023-02-01T05:51:06;98627.61;;;2.48;100.00
70971;BME280;58632;51.718;19.446;2023-02-01T05:53:32;98628.08;;;2.49;100.00
70971;BME280;58632;51.718;19.446;2023-02-01T05:55:58;98630.41;;;2.49;100.00
70971;BME280;58632;51.718;19.446;2023-02-01T05:58:23;98621.80;;;2.49;100.00
70971;BME280;58632;51.718;19.446;2023-02-01T06:00:49;98621.73;;;2.49;100.00
70971;BME280;58632;51.718;19.446;2023-02-01T06:03:15;98624.05;;;2.51;100.00
70971;BME280;58632;51.718;19.446;2023-02-01T06:05:43;98617.46;;;2.50;100.00
70971;BME280;58632;51.718;19.446;2023-02-01T06:08:08;98621.58;;;2.49;100.00
70971;BME280;58632;51.718;19.446;2023-02-01T06:10:34;98622.41;;;2.48;100.00
70971;BME280;58632;51.718;19.446;2023-02-01T06:13:00;98619.82;;;2.48;100.00
70971;BME280;58632;51.718;19.446;2023-02-01T06:15:25;98616.61;;;2.49;100.00
70971;BME280;58632;51.718;19.446;2023-02-01T06:17:51;98612.59;;;2.50;100.00
70971;BME280;58632;51.718;19.446;2023-02-01T06:20:16;98615.32;;;2.52;100.00
70971;BME280;58632;51.718;19.446;2023-02-01T06:22:42;98618.58;;;2.54;100.00
70971;BME280;58632;51.718;19.446;2023-02-01T06:25:08;98616.06;;;2.50;100.00
70971;BME280;58632;51.718;19.446;2023-02-01T06:27:35;98613.84;;;2.49;100.00
70971;BME280;58632;51.718;19.446;2023-02-01T06:30:01;98618.39;;;2.52;100.00
70971;BME280;58632;51.718;19.446;2023-02-01T06:32:26;98614.86;;;2.53;100.00
70971;BME280;58632;51.718;19.446;2023-02-01T06:34:52;98611.58;;;2.56;100.00
70971;BME280;58632;51.718;19.446;2023-02-01T06:37:18;98608.21;;;2.57;100.00
70971;BME280;58632;51.718;19.446;2023-02-01T06:39:43;98610.54;;;2.56;100.00
70971;BME280;58632;51.718;19.446;2023-02-01T06:42:09;98610.10;;;2.57;100.00
70971;BME280;58632;51.718;19.446;2023-02-01T06:44:35;98611.52;;;2.59;100.00
70971;BME280;58632;51.718;19.446;2023-02-01T06:47:00;98612.31;;;2.60;100.00
70971;BME280;58632;51.718;19.446;2023-02-01T06:49:26;98608.81;;;2.60;100.00
70971;BME280;58632;51.718;19.446;2023-02-01T06:51:51;98610.55;;;2.59;100.00
70971;BME280;58632;51.718;19.446;2023-02-01T06:54:17;98614.23;;;2.59;100.00
70971;BME280;58632;51.718;19.446;2023-02-01T06:56:43;98619.52;;;2.62;100.00
70971;BME280;58632;51.718;19.446;2023-02-01T06:59:09;98616.59;;;2.66;100.00
70971;BME280;58632;51.718;19.446;2023-02-01T07:01:35;98616.42;;;2.69;100.00
70971;BME280;58632;51.718;19.446;2023-02-01T07:04:01;98618.67;;;2.70;100.00
70971;BME280;58632;51.718;19.446;2023-02-01T07:06:27;98614.05;;;2.72;100.00
70971;BME280;58632;51.718;19.446;2023-02-01T07:08:52;98616.91;;;2.72;100.00
70971;BME280;58632;51.718;19.446;2023-02-01T07:11:21;98609.61;;;2.71;100.00
70971;BME280;58632;51.718;19.446;2023-02-01T07:13:47;98609.73;;;2.72;100.00
70971;BME280;58632;51.718;19.446;2023-02-01T07:16:14;98613.40;;;2.74;100.00
70971;BME280;58632;51.718;19.446;2023-02-01T07:18:40;98608.97;;;2.74;100.00
70971;BME280;58632;51.718;19.446;2023-02-01T07:21:05;98612.02;;;2.75;100.00
70971;BME280;58632;51.718;19.446;2023-02-01T07:23:31;98606.13;;;2.76;100.00
70971;BME280;58632;51.718;19.446;2023-02-01T07:25:58;98615.90;;;2.77;100.00
70971;BME280;58632;51.718;19.446;2023-02-01T07:28:24;98614.86;;;2.78;100.00
70971;BME280;58632;51.718;19.446;2023-02-01T07:30:49;98613.84;;;2.80;100.00
70971;BME280;58632;51.718;19.446;2023-02-01T07:33:19;98619.33;;;2.84;100.00
70971;BME280;58632;51.718;19.446;2023-02-01T07:35:45;98615.48;;;2.87;100.00
70971;BME280;58632;51.718;19.446;2023-02-01T07:38:11;98615.19;;;2.89;100.00
70971;BME280;58632;51.718;19.446;2023-02-01T07:40:36;98616.12;;;2.91;100.00
70971;BME280;58632;51.718;19.446;2023-02-01T07:43:02;98618.98;;;2.92;100.00
70971;BME280;58632;51.718;19.446;2023-02-01T07:45:28;98620.94;;;2.93;100.00
70971;BME280;58632;51.718;19.446;2023-02-01T07:47:53;98612.70;;;3.00;100.00
70971;BME280;58632;51.718;19.446;2023-02-01T07:50:19;98608.02;;;3.07;100.00
70971;BME280;58632;51.718;19.446;2023-02-01T07:52:44;98614.33;;;3.14;100.00
70971;BME280;58632;51.718;19.446;2023-02-01T07:55:10;98608.48;;;3.16;100.00
70971;BME280;58632;51.718;19.446;2023-02-01T07:57:35;98611.03;;;3.18;100.00
70971;BME280;58632;51.718;19.446;2023-02-01T08:00:02;98611.62;;;3.19;100.00
70971;BME280;58632;51.718;19.446;2023-02-01T08:02:46;98608.30;;;3.22;100.00
70971;BME280;58632;51.718;19.446;2023-02-01T08:05:12;98608.59;;;3.25;100.00
70971;BME280;58632;51.718;19.446;2023-02-01T08:07:38;98608.86;;;3.30;100.00
70971;BME280;58632;51.718;19.446;2023-02-01T08:10:03;98605.31;;;3.34;100.00
70971;BME280;58632;51.718;19.446;2023-02-01T08:12:36;98603.08;;;3.35;100.00
70971;BME280;58632;51.718;19.446;2023-02-01T08:15:01;98605.17;;;3.35;100.00
70971;BME280;58632;51.718;19.446;2023-02-01T08:17:27;98603.56;;;3.39;100.00
70971;BME280;58632;51.718;19.446;2023-02-01T08:19:53;98604.74;;;3.45;100.00
70971;BME280;58632;51.718;19.446;2023-02-01T08:22:19;98606.55;;;3.50;100.00
70971;BME280;58632;51.718;19.446;2023-02-01T08:24:47;98608.91;;;3.50;100.00
70971;BME280;58632;51.718;19.446;2023-02-01T08:27:13;98604.90;;;3.48;100.00
70971;BME280;58632;51.718;19.446;2023-02-01T08:29:38;98605.77;;;3.45;100.00
70971;BME280;58632;51.718;19.446;2023-02-01T08:32:04;98602.99;;;3.44;100.00
70971;BME280;58632;51.718;19.446;2023-02-01T08:34:29;98604.03;;;3.49;100.00
70971;BME280;58632;51.718;19.446;2023-02-01T08:36:55;98607.85;;;3.57;100.00
70971;BME280;58632;51.718;19.446;2023-02-01T08:39:24;98607.84;;;3.65;100.00
70971;BME280;58632;51.718;19.446;2023-02-01T08:41:50;98611.80;;;3.74;100.00
70971;BME280;58632;51.718;19.446;2023-02-01T08:44:35;98613.86;;;3.84;100.00
70971;BME280;58632;51.718;19.446;2023-02-01T08:47:02;98612.91;;;3.92;100.00
70971;BME280;58632;51.718;19.446;2023-02-01T08:49:28;98607.79;;;3.96;100.00
70971;BME280;58632;51.718;19.446;2023-02-01T08:51:53;98604.27;;;3.98;100.00
70971;BME280;58632;51.718;19.446;2023-02-01T08:54:20;98606.27;;;4.06;100.00
70971;BME280;58632;51.718;19.446;2023-02-01T08:56:46;98609.72;;;4.12;100.00
70971;BME280;58632;51.718;19.446;2023-02-01T08:59:11;98611.97;;;4.18;100.00
70971;BME280;58632;51.718;19.446;2023-02-01T09:01:37;98614.02;;;4.28;100.00
70971;BME280;58632;51.718;19.446;2023-02-01T09:04:02;98610.39;;;4.41;100.00
70971;BME280;58632;51.718;19.446;2023-02-01T09:06:28;98606.21;;;4.53;100.00
70971;BME280;58632;51.718;19.446;2023-02-01T09:08:54;98608.55;;;4.61;100.00
70971;BME280;58632;51.718;19.446;2023-02-01T09:11:19;98614.38;;;4.64;100.00
70971;BME280;58632;51.718;19.446;2023-02-01T09:13:46;98612.41;;;4.55;100.00
70971;BME280;58632;51.718;19.446;2023-02-01T09:16:12;98615.53;;;4.38;100.00
70971;BME280;58632;51.718;19.446;2023-02-01T09:18:37;98615.95;;;4.29;100.00
70971;BME280;58632;51.718;19.446;2023-02-01T09:21:03;98616.55;;;4.19;100.00
70971;BME280;58632;51.718;19.446;2023-02-01T09:23:29;98619.23;;;4.09;100.00
70971;BME280;58632;51.718;19.446;2023-02-01T09:25:58;98617.35;;;4.06;100.00
70971;BME280;58632;51.718;19.446;2023-02-01T09:28:23;98616.40;;;4.02;100.00
70971;BME280;58632;51.718;19.446;2023-02-01T09:30:49;98612.30;;;3.98;100.00
70971;BME280;58632;51.718;19.446;2023-02-01T09:33:15;98609.86;;;3.93;100.00
70971;BME280;58632;51.718;19.446;2023-02-01T09:35:42;98603.19;;;3.88;100.00
70971;BME280;58632;51.718;19.446;2023-02-01T09:38:08;98607.33;;;3.89;100.00
70971;BME280;58632;51.718;19.446;2023-02-01T09:40:34;98610.33;;;3.87;100.00
70971;BME280;58632;51.718;19.446;2023-02-01T09:43:11;98618.23;;;3.83;100.00
70971;BME280;58632;51.718;19.446;2023-02-01T09:45:44;98610.90;;;3.76;100.00
70971;BME280;58632;51.718;19.446;2023-02-01T09:48:18;98609.82;;;3.66;100.00
70971;BME280;58632;51.718;19.446;2023-02-01T09:50:55;98610.09;;;3.54;100.00
70971;BME280;58632;51.718;19.446;2023-02-01T09:55:51;98614.11;;;3.45;100.00
70971;BME280;58632;51.718;19.446;2023-02-01T09:58:22;98608.97;;;3.45;100.00
70971;BME280;58632;51.718;19.446;2023-02-01T10:00:51;98614.14;;;3.44;100.00
70971;BME280;58632;51.718;19.446;2023-02-01T10:03:17;98613.36;;;3.43;100.00
70971;BME280;58632;51.718;19.446;2023-02-01T10:10:53;98616.02;;;3.54;100.00
70971;BME280;58632;51.718;19.446;2023-02-01T10:13:41;98612.70;;;3.56;100.00
70971;BME280;58632;51.718;19.446;2023-02-01T10:16:13;98611.39;;;3.51;100.00
70971;BME280;58632;51.718;19.446;2023-02-01T10:23:48;98612.25;;;3.36;100.00
70971;BME280;58632;51.718;19.446;2023-02-01T10:26:19;98607.58;;;3.31;100.00
70971;BME280;58632;51.718;19.446;2023-02-01T10:28:56;98603.59;;;3.33;100.00
70971;BME280;58632;51.718;19.446;2023-02-01T10:31:23;98601.23;;;3.34;100.00
70971;BME280;58632;51.718;19.446;2023-02-01T10:33:51;98604.42;;;3.34;100.00
70971;BME280;58632;51.718;19.446;2023-02-01T10:36:23;98601.48;;;3.36;100.00
70971;BME280;58632;51.718;19.446;2023-02-01T10:38:53;98597.05;;;3.38;100.00
70971;BME280;58632;51.718;19.446;2023-02-01T10:41:22;98595.11;;;3.45;100.00
70971;BME280;58632;51.718;19.446;2023-02-01T10:43:50;98596.52;;;3.53;100.00
70971;BME280;58632;51.718;19.446;2023-02-01T10:46:18;98585.16;;;3.62;100.00
70971;BME280;58632;51.718;19.446;2023-02-01T10:48:44;98586.77;;;3.67;100.00
70971;BME280;58632;51.718;19.446;2023-02-01T10:51:14;98593.23;;;3.74;100.00
70971;BME280;58632;51.718;19.446;2023-02-01T10:54:31;98588.39;;;3.82;100.00
70971;BME280;58632;51.718;19.446;2023-02-01T10:56:30;98584.01;;;3.93;100.00
70971;BME280;58632;51.718;19.446;2023-02-01T10:59:06;98583.20;;;4.04;100.00
70971;BME280;58632;51.718;19.446;2023-02-01T11:01:40;98585.43;;;4.17;100.00
70971;BME280;58632;51.718;19.446;2023-02-01T11:04:13;98577.50;;;4.34;100.00
70971;BME280;58632;51.718;19.446;2023-02-01T11:06:40;98576.33;;;4.47;100.00
70971;BME280;58632;51.718;19.446;2023-02-01T11:11:32;98579.14;;;4.68;100.00
70971;BME280;58632;51.718;19.446;2023-02-01T11:13:59;98570.79;;;4.86;100.00
70971;BME280;58632;51.718;19.446;2023-02-01T11:16:29;98568.39;;;5.00;100.00
70971;BME280;58632;51.718;19.446;2023-02-01T11:18:55;98559.84;;;5.07;100.00
70971;BME280;58632;51.718;19.446;2023-02-01T11:21:23;98560.36;;;5.09;100.00
70971;BME280;58632;51.718;19.446;2023-02-01T11:23:48;98556.98;;;5.11;100.00
70971;BME280;58632;51.718;19.446;2023-02-01T11:26:19;98552.52;;;5.13;100.00
70971;BME280;58632;51.718;19.446;2023-02-01T11:28:50;98550.74;;;5.18;100.00
70971;BME280;58632;51.718;19.446;2023-02-01T11:31:16;98551.36;;;5.21;100.00
70971;BME280;58632;51.718;19.446;2023-02-01T11:33:49;98547.83;;;5.30;100.00
70971;BME280;58632;51.718;19.446;2023-02-01T11:36:16;98546.42;;;5.35;100.00
70971;BME280;58632;51.718;19.446;2023-02-01T11:38:51;98545.02;;;5.42;100.00
70971;BME280;58632;51.718;19.446;2023-02-01T11:41:22;98542.23;;;5.42;100.00
70971;BME280;58632;51.718;19.446;2023-02-01T11:43:52;98533.43;;;5.34;100.00
70971;BME280;58632;51.718;19.446;2023-02-01T11:46:19;98532.23;;;5.25;100.00
70971;BME280;58632;51.718;19.446;2023-02-01T11:48:53;98529.65;;;5.23;100.00
70971;BME280;58632;51.718;19.446;2023-02-01T11:51:21;98526.95;;;5.24;100.00
70971;BME280;58632;51.718;19.446;2023-02-01T11:54:10;98524.61;;;5.24;100.00
70971;BME280;58632;51.718;19.446;2023-02-01T11:56:50;98522.79;;;5.20;100.00
70971;BME280;58632;51.718;19.446;2023-02-01T12:10:01;98532.15;;;5.23;100.00
70971;BME280;58632;51.718;19.446;2023-02-01T12:12:33;98534.67;;;5.31;100.00
70971;BME280;58632;51.718;19.446;2023-02-01T12:30:52;98519.61;;;4.98;100.00
70971;BME280;58632;51.718;19.446;2023-02-01T12:43:49;98518.41;;;4.60;100.00
70971;BME280;58632;51.718;19.446;2023-02-01T12:46:16;98512.92;;;4.54;100.00
70971;BME280;58632;51.718;19.446;2023-02-01T12:51:15;98512.09;;;4.45;100.00
70971;BME280;58632;51.718;19.446;2023-02-01T12:56:08;98509.32;;;4.43;100.00
70971;BME280;58632;51.718;19.446;2023-02-01T12:58:46;98505.88;;;4.54;100.00
70971;BME280;58632;51.718;19.446;2023-02-01T13:01:25;98507.48;;;4.59;100.00
70971;BME280;58632;51.718;19.446;2023-02-01T13:11:42;98503.67;;;4.77;100.00
70971;BME280;58632;51.718;19.446;2023-02-01T13:16:45;98507.73;;;4.62;100.00
70971;BME280;58632;51.718;19.446;2023-02-01T13:19:20;98513.50;;;4.52;100.00
70971;BME280;58632;51.718;19.446;2023-02-01T13:21:53;98517.70;;;4.46;100.00
70971;BME280;58632;51.718;19.446;2023-02-01T13:27:03;98520.47;;;4.28;100.00
70971;BME280;58632;51.718;19.446;2023-02-01T13:29:29;98518.70;;;4.27;100.00
70971;BME280;58632;51.718;19.446;2023-02-01T13:42:02;98508.67;;;4.57;100.00
70971;BME280;58632;51.718;19.446;2023-02-01T13:46:56;98511.59;;;4.55;100.00
70971;BME280;58632;51.718;19.446;2023-02-01T13:49:23;98513.12;;;4.45;100.00
70971;BME280;58632;51.718;19.446;2023-02-01T13:51:51;98511.13;;;4.35;100.00
70971;BME280;58632;51.718;19.446;2023-02-01T13:54:31;98504.98;;;4.28;100.00
70971;BME280;58632;51.718;19.446;2023-02-01T13:56:58;98513.16;;;4.23;100.00
70971;BME280;58632;51.718;19.446;2023-02-01T14:04:49;98508.52;;;4.08;100.00
70971;BME280;58632;51.718;19.446;2023-02-01T14:07:20;98506.45;;;4.01;100.00
70971;BME280;58632;51.718;19.446;2023-02-01T14:09:46;98508.77;;;3.95;100.00
70971;BME280;58632;51.718;19.446;2023-02-01T14:17:41;98510.89;;;3.79;100.00
70971;BME280;58632;51.718;19.446;2023-02-01T14:20:36;98510.37;;;3.72;100.00
70971;BME280;58632;51.718;19.446;2023-02-01T14:23:02;98508.02;;;3.73;100.00
70971;BME280;58632;51.718;19.446;2023-02-01T14:25:34;98506.09;;;3.73;100.00
70971;BME280;58632;51.718;19.446;2023-02-01T14:27:59;98510.41;;;3.70;100.00
70971;BME280;58632;51.718;19.446;2023-02-01T14:30:26;98512.29;;;3.69;100.00
70971;BME280;58632;51.718;19.446;2023-02-01T14:32:52;98513.89;;;3.67;100.00
70971;BME280;58632;51.718;19.446;2023-02-01T14:35:23;98514.07;;;3.64;100.00
70971;BME280;58632;51.718;19.446;2023-02-01T14:37:50;98511.66;;;3.58;100.00
70971;BME280;58632;51.718;19.446;2023-02-01T14:40:23;98514.45;;;3.55;100.00
70971;BME280;58632;51.718;19.446;2023-02-01T14:42:51;98516.67;;;3.55;100.00
70971;BME280;58632;51.718;19.446;2023-02-01T14:55:34;98519.21;;;3.31;100.00
70971;BME280;58632;51.718;19.446;2023-02-01T14:58:01;98512.97;;;3.29;100.00
70971;BME280;58632;51.718;19.446;2023-02-01T15:00:29;98514.05;;;3.27;100.00
70971;BME280;58632;51.718;19.446;2023-02-01T15:05:35;98525.34;;;3.21;100.00
70971;BME280;58632;51.718;19.446;2023-02-01T15:08:05;98526.57;;;3.22;100.00
70971;BME280;58632;51.718;19.446;2023-02-01T15:10:33;98526.77;;;3.23;100.00
70971;BME280;58632;51.718;19.446;2023-02-01T15:13:04;98527.95;;;3.20;100.00
70971;BME280;58632;51.718;19.446;2023-02-01T15:15:30;98532.64;;;3.18;100.00
70971;BME280;58632;51.718;19.446;2023-02-01T15:18:01;98535.71;;;3.16;100.00
70971;BME280;58632;51.718;19.446;2023-02-01T15:20:27;98540.15;;;3.14;100.00